Time;durP1;ratioP1;P1;durP2;ratioP2;P2;SDS_P1;SDS_P2;PMS_P1;PMS_P2;Temp;Humidity;BMP_temperature;BMP_pressure;BME280_temperature;BME280_humidity;BME280_pressure;Samples;Min_cycle;Max_cycle;Signal;HPM_P1;HPM_P2
2023/10/25 00:00:05;;;;;;;3.90;3.50;;;;;;;;;;5054899;28;20399;-83
2023/10/25 00:02:31;;;;;;;3.58;3.38;;;;;;;;;;5054221;28;20421;-83
2023/10/25 00:04:57;;;;;;;3.00;2.80;;;;;;;;;;5054661;28;20376;-83
2023/10/25 00:07:23;;;;;;;2.97;2.78;;;;;;;;;;5055175;28;20389;-83
2023/10/25 00:09:49;;;;;;;3.10;2.90;;;;;;;;;;5055445;28;20384;-83
2023/10/25 00:12:15;;;;;;;3.30;3.10;;;;;;;;;;5055223;28;20385;-83
2023/10/25 00:14:41;;;;;;;3.00;2.80;;;;;;;;;;5055072;28;20940;-83
2023/10/25 00:17:07;;;;;;;3.08;2.88;;;;;;;;;;5055739;28;20381;-83
2023/10/25 00:19:33;;;;;;;3.00;2.80;;;;;;;;;;5055617;28;20412;-83
2023/10/25 00:21:59;;;;;;;2.83;2.63;;;;;;;;;;5060813;28;20428;-83
2023/10/25 00:24:25;;;;;;;2.90;2.70;;;;;;;;;;5053713;28;20912;-83
2023/10/25 00:26:51;;;;;;;3.40;3.20;;;;;;;;;;5052156;28;20393;-83
2023/10/25 00:29:17;;;;;;;3.30;3.10;;;;;;;;;;5051628;28;20427;-83
2023/10/25 00:31:43;;;;;;;3.50;3.20;;;;;;;;;;5051507;28;20389;-82
2023/10/25 00:34:09;;;;;;;3.10;2.90;;;;;;;;;;5051384;28;20382;-82
2023/10/25 00:36:35;;;;;;;3.10;2.90;;;;;;;;;;5051327;28;20377;-82
2023/10/25 00:39:01;;;;;;;3.38;3.17;;;;;;;;;;5051588;28;20486;-82
2023/10/25 00:41:27;;;;;;;2.78;2.58;;;;;;;;;;5051906;28;20731;-83
2023/10/25 00:43:54;;;;;;;2.85;2.65;;;;;;;;;;5051722;28;20405;-83
2023/10/25 00:46:22;;;;;;;3.00;2.80;;;;;;;;;;5051512;28;20400;-83
2023/10/25 00:48:48;;;;;;;3.50;3.30;;;;;;;;;;5052285;28;20380;-83
2023/10/25 00:51:15;;;;;;;3.20;2.90;;;;;;;;;;5052343;28;20373;-83
2023/10/25 00:53:41;;;;;;;3.13;2.92;;;;;;;;;;5050882;28;20381;-83
2023/10/25 00:56:08;;;;;;;3.35;3.05;;;;;;;;;;5051413;28;20460;-83
2023/10/25 00:58:34;;;;;;;2.75;2.60;;;;;;;;;;5051823;28;20385;-83
2023/10/25 01:01:01;;;;;;;2.72;2.63;;;;;;;;;;5051665;28;20468;-83
2023/10/25 01:03:27;;;;;;;2.88;2.60;;;;;;;;;;5052310;28;20453;-83
2023/10/25 01:05:53;;;;;;;3.00;2.80;;;;;;;;;;5051756;28;20409;-83
2023/10/25 01:08:20;;;;;;;2.70;2.60;;;;;;;;;;5052162;28;20499;-83
2023/10/25 01:10:55;;;;;;;2.90;2.60;;;;;;;;;;5051969;28;20523;-83
2023/10/25 01:13:21;;;;;;;3.17;2.92;;;;;;;;;;5052605;28;20378;-83
2023/10/25 01:15:48;;;;;;;2.95;2.70;;;;;;;;;;5052469;28;20443;-83
2023/10/25 01:18:14;;;;;;;4.00;3.70;;;;;;;;;;5052284;28;20546;-83
2023/10/25 01:20:41;;;;;;;3.97;3.67;;;;;;;;;;5052326;28;20400;-83
2023/10/25 01:23:07;;;;;;;4.30;4.00;;;;;;;;;;5051769;28;20417;-83
2023/10/25 01:25:33;;;;;;;4.00;3.70;;;;;;;;;;5052202;28;20384;-83
2023/10/25 01:28:00;;;;;;;3.63;3.42;;;;;;;;;;5052447;28;20393;-83
2023/10/25 01:30:26;;;;;;;3.77;3.47;;;;;;;;;;5052260;28;20384;-83
2023/10/25 01:32:55;;;;;;;3.78;3.58;;;;;;;;;;5052708;28;20405;-83
2023/10/25 01:35:21;;;;;;;3.58;3.38;;;;;;;;;;5050428;28;20419;-83
2023/10/25 01:37:48;;;;;;;3.63;3.42;;;;;;;;;;5052893;28;20407;-83
2023/10/25 01:40:15;;;;;;;3.50;3.30;;;;;;;;;;5052184;28;20382;-81
2023/10/25 01:42:41;;;;;;;3.50;3.30;;;;;;;;;;5053131;28;20462;-83
2023/10/25 01:45:07;;;;;;;3.90;3.60;;;;;;;;;;5052826;28;20836;-83
2023/10/25 01:47:33;;;;;;;3.83;3.53;;;;;;;;;;5052929;28;20385;-83
2023/10/25 01:49:59;;;;;;;3.50;3.30;;;;;;;;;;5052595;28;20385;-83
2023/10/25 01:52:25;;;;;;;3.63;3.33;;;;;;;;;;5052775;28;20434;-83
2023/10/25 01:54:51;;;;;;;3.30;3.10;;;;;;;;;;5053009;28;20455;-83
2023/10/25 01:57:18;;;;;;;3.38;3.17;;;;;;;;;;5052666;28;20851;-83
2023/10/25 01:59:44;;;;;;;3.75;3.47;;;;;;;;;;5052336;28;20393;-83
2023/10/25 02:02:11;;;;;;;3.40;3.20;;;;;;;;;;5052189;28;20870;-83
2023/10/25 02:04:37;;;;;;;3.63;3.42;;;;;;;;;;5054852;28;20733;-83
2023/10/25 02:07:03;;;;;;;3.42;3.13;;;;;;;;;;5055975;28;20384;-83
2023/10/25 02:09:29;;;;;;;3.15;2.95;;;;;;;;;;5056140;28;20727;-83
2023/10/25 02:11:55;;;;;;;3.20;3.00;;;;;;;;;;5056816;28;20855;-83
2023/10/25 02:14:21;;;;;;;3.53;3.33;;;;;;;;;;5056536;28;20376;-83
2023/10/25 02:16:47;;;;;;;3.92;3.63;;;;;;;;;;5048583;28;20435;-83
2023/10/25 02:19:13;;;;;;;3.30;3.10;;;;;;;;;;5055651;28;20447;-83
2023/10/25 02:21:39;;;;;;;3.60;3.40;;;;;;;;;;5053673;28;20467;-83
2023/10/25 02:24:05;;;;;;;3.88;3.58;;;;;;;;;;5055847;28;20817;-83
2023/10/25 02:26:31;;;;;;;4.00;3.72;;;;;;;;;;5056542;28;20395;-83
2023/10/25 02:28:58;;;;;;;4.35;4.05;;;;;;;;;;5056098;28;20439;-83
2023/10/25 02:31:24;;;;;;;3.92;3.60;;;;;;;;;;5056762;28;20459;-83
2023/10/25 02:33:50;;;;;;;3.90;3.60;;;;;;;;;;5056590;28;20831;-83
2023/10/25 02:36:16;;;;;;;4.13;3.83;;;;;;;;;;5056243;28;20388;-83
2023/10/25 02:38:42;;;;;;;4.18;3.88;;;;;;;;;;5039262;28;20382;-83
2023/10/25 02:41:08;;;;;;;4.10;3.90;;;;;;;;;;5056453;28;20392;-83
2023/10/25 02:43:34;;;;;;;4.10;3.80;;;;;;;;;;5056406;28;20409;-83
2023/10/25 02:46:05;;;;;;;4.70;4.30;;;;;;;;;;5056001;28;20401;-83
2023/10/25 02:48:31;;;;;;;4.40;4.10;;;;;;;;;;5056258;28;20381;-83
2023/10/25 02:50:59;;;;;;;4.38;3.97;;;;;;;;;;5046353;28;20765;-83
2023/10/25 02:53:25;;;;;;;4.30;4.00;;;;;;;;;;5055978;28;20401;-83
2023/10/25 02:55:51;;;;;;;3.67;3.40;;;;;;;;;;5056590;28;20394;-82
2023/10/25 02:58:17;;;;;;;4.25;3.95;;;;;;;;;;5056394;28;20404;-83
2023/10/25 03:00:43;;;;;;;4.47;4.18;;;;;;;;;;5055644;28;20381;-83
2023/10/25 03:03:09;;;;;;;4.60;4.28;;;;;;;;;;5055747;28;20890;-83
2023/10/25 03:05:35;;;;;;;4.30;4.00;;;;;;;;;;5056300;28;20476;-83
2023/10/25 03:08:01;;;;;;;4.70;4.40;;;;;;;;;;5055956;28;20370;-83
2023/10/25 03:10:27;;;;;;;4.90;4.50;;;;;;;;;;5056001;28;20435;-83
2023/10/25 03:12:53;;;;;;;5.20;4.90;;;;;;;;;;5056345;28;20377;-83
2023/10/25 03:15:19;;;;;;;5.20;4.80;;;;;;;;;;5054967;28;20451;-83
2023/10/25 03:17:45;;;;;;;5.47;5.07;;;;;;;;;;5055750;28;20476;-83
2023/10/25 03:20:11;;;;;;;5.63;5.22;;;;;;;;;;5055806;28;20843;-83
2023/10/25 03:22:37;;;;;;;5.50;5.10;;;;;;;;;;5055598;28;20417;-83
2023/10/25 03:25:04;;;;;;;6.20;5.80;;;;;;;;;;5055748;28;20434;-83
2023/10/25 03:27:30;;;;;;;5.80;5.40;;;;;;;;;;5055763;28;20432;-83
2023/10/25 03:29:56;;;;;;;5.97;5.47;;;;;;;;;;5064286;28;20389;-83
2023/10/25 03:32:22;;;;;;;6.60;6.00;;;;;;;;;;5057239;28;20386;-82
2023/10/25 03:34:51;;;;;;;5.70;5.30;;;;;;;;;;5064547;28;20390;-82
2023/10/25 03:37:17;;;;;;;5.85;5.45;;;;;;;;;;5054440;28;20382;-82
2023/10/25 03:39:43;;;;;;;5.80;5.40;;;;;;;;;;5052575;28;20439;-82
2023/10/25 03:42:09;;;;;;;5.40;5.00;;;;;;;;;;5052204;28;20374;-83
2023/10/25 03:44:35;;;;;;;5.90;5.40;;;;;;;;;;5033033;28;20401;-82
2023/10/25 03:47:01;;;;;;;4.90;4.60;;;;;;;;;;5055672;28;20377;-82
2023/10/25 03:49:27;;;;;;;5.75;5.38;;;;;;;;;;5051906;28;20386;-83
2023/10/25 03:51:53;;;;;;;6.10;5.70;;;;;;;;;;5052608;28;20406;-83
2023/10/25 03:54:19;;;;;;;7.60;7.00;;;;;;;;;;5052636;28;20382;-83
2023/10/25 03:56:45;;;;;;;7.72;7.13;;;;;;;;;;5052336;28;20388;-83
2023/10/25 03:59:11;;;;;;;6.82;6.40;;;;;;;;;;5052735;28;20874;-82
2023/10/25 04:01:37;;;;;;;5.80;5.40;;;;;;;;;;5052553;28;20405;-82
2023/10/25 04:04:03;;;;;;;5.30;5.00;;;;;;;;;;5052677;28;20455;-82
2023/10/25 04:06:29;;;;;;;6.10;5.70;;;;;;;;;;5053021;28;20404;-82
2023/10/25 04:08:55;;;;;;;6.10;5.60;;;;;;;;;;5052617;28;20400;-82
2023/10/25 04:11:21;;;;;;;6.07;5.68;;;;;;;;;;5052795;28;20843;-82
2023/10/25 04:13:47;;;;;;;5.88;5.40;;;;;;;;;;5052981;28;20377;-82
2023/10/25 04:16:13;;;;;;;6.15;5.65;;;;;;;;;;5052569;28;20443;-82
2023/10/25 04:18:39;;;;;;;5.38;4.97;;;;;;;;;;5053594;28;20439;-83
2023/10/25 04:21:09;;;;;;;5.77;5.37;;;;;;;;;;5054138;28;20373;-82
2023/10/25 04:23:35;;;;;;;7.50;6.82;;;;;;;;;;5053358;28;20414;-82
2023/10/25 04:26:04;;;;;;;5.70;5.30;;;;;;;;;;5053298;28;20468;-80
2023/10/25 04:28:30;;;;;;;7.97;7.37;;;;;;;;;;5052870;28;20377;-81
2023/10/25 04:30:56;;;;;;;9.40;8.50;;;;;;;;;;5053745;28;20934;-83
2023/10/25 04:33:22;;;;;;;6.88;6.38;;;;;;;;;;5053107;28;20778;-83
2023/10/25 04:35:48;;;;;;;7.57;7.07;;;;;;;;;;5053115;28;20459;-83
2023/10/25 04:38:14;;;;;;;8.13;7.53;;;;;;;;;;5053495;28;20405;-83
2023/10/25 04:40:40;;;;;;;8.35;7.55;;;;;;;;;;5053664;28;20388;-82
2023/10/25 04:43:06;;;;;;;8.52;7.82;;;;;;;;;;5054140;28;20488;-83
2023/10/25 04:45:35;;;;;;;8.17;7.57;;;;;;;;;;5053983;28;20385;-82
2023/10/25 04:48:01;;;;;;;7.60;7.00;;;;;;;;;;5054256;28;20522;-83
2023/10/25 04:50:32;;;;;;;7.10;6.50;;;;;;;;;;5054477;28;20387;-82
2023/10/25 04:52:58;;;;;;;6.97;6.47;;;;;;;;;;5054405;28;20377;-83
2023/10/25 04:55:26;;;;;;;7.60;7.00;;;;;;;;;;5054518;28;20412;-82
2023/10/25 04:57:52;;;;;;;6.83;6.33;;;;;;;;;;5054002;28;20409;-82
2023/10/25 05:00:18;;;;;;;7.00;6.50;;;;;;;;;;5037946;28;20413;-82
2023/10/25 05:02:44;;;;;;;7.30;6.72;;;;;;;;;;5055227;28;20862;-82
2023/10/25 05:05:10;;;;;;;8.43;7.68;;;;;;;;;;5055009;28;20523;-82
2023/10/25 05:07:39;;;;;;;8.60;7.90;;;;;;;;;;5054448;28;20385;-82
2023/10/25 05:10:09;;;;;;;9.95;9.25;;;;;;;;;;5054866;28;20723;-82
2023/10/25 05:12:38;;;;;;;9.40;8.68;;;;;;;;;;5054403;28;20452;-82
2023/10/25 05:15:15;;;;;;;8.52;7.82;;;;;;;;;;5054449;28;20388;-82
2023/10/25 05:17:42;;;;;;;8.90;8.20;;;;;;;;;;5054616;28;20397;-82
2023/10/25 05:20:08;;;;;;;8.57;7.97;;;;;;;;;;5054707;28;20386;-82
2023/10/25 05:22:35;;;;;;;8.98;8.27;;;;;;;;;;5054181;28;20483;-82
2023/10/25 05:25:01;;;;;;;9.13;8.00;;;;;;;;;;5054414;28;20396;-82
2023/10/25 05:27:27;;;;;;;8.10;7.50;;;;;;;;;;5054794;28;20740;-82
2023/10/25 05:29:53;;;;;;;7.75;7.15;;;;;;;;;;5054094;28;20831;-82
2023/10/25 05:32:20;;;;;;;7.10;6.60;;;;;;;;;;5054811;28;20386;-82
2023/10/25 05:34:47;;;;;;;7.10;6.60;;;;;;;;;;5054883;28;20386;-82
2023/10/25 05:37:13;;;;;;;8.00;7.47;;;;;;;;;;5053671;28;20918;-82
2023/10/25 05:39:39;;;;;;;8.07;7.55;;;;;;;;;;5056853;28;20380;-82
2023/10/25 05:42:05;;;;;;;7.93;7.43;;;;;;;;;;5058233;28;20460;-82
2023/10/25 05:44:31;;;;;;;8.10;7.43;;;;;;;;;;5057860;28;20421;-82
2023/10/25 05:46:58;;;;;;;7.47;6.97;;;;;;;;;;5058128;28;20390;-82
2023/10/25 05:49:24;;;;;;;7.50;7.00;;;;;;;;;;5057894;28;20415;-82
2023/10/25 05:51:50;;;;;;;7.57;7.03;;;;;;;;;;5058545;28;20389;-82
2023/10/25 05:54:16;;;;;;;7.10;6.70;;;;;;;;;;5058537;28;20384;-82
2023/10/25 05:56:42;;;;;;;6.65;6.15;;;;;;;;;;5058209;28;20389;-82
2023/10/25 05:59:08;;;;;;;6.80;6.30;;;;;;;;;;5058596;28;20378;-82
2023/10/25 06:01:50;;;;;;;6.80;6.40;;;;;;;;;;5058596;28;20400;-82
2023/10/25 06:04:18;;;;;;;6.70;6.20;;;;;;;;;;5058020;28;20894;-82
2023/10/25 06:06:45;;;;;;;6.97;6.47;;;;;;;;;;5057947;28;20777;-82
2023/10/25 06:09:11;;;;;;;6.43;5.93;;;;;;;;;;5057397;28;20373;-82
2023/10/25 06:11:38;;;;;;;6.63;6.22;;;;;;;;;;5056815;28;20393;-82
2023/10/25 06:14:04;;;;;;;6.40;6.00;;;;;;;;;;5058816;28;20381;-83
2023/10/25 06:16:30;;;;;;;8.18;7.57;;;;;;;;;;5058227;28;20397;-82
2023/10/25 06:18:56;;;;;;;7.50;6.90;;;;;;;;;;5058779;28;20471;-82
2023/10/25 06:21:22;;;;;;;7.10;6.65;;;;;;;;;;5058970;28;20442;-82
2023/10/25 06:23:48;;;;;;;7.63;7.13;;;;;;;;;;5057859;28;20421;-82
2023/10/25 06:26:14;;;;;;;8.30;7.70;;;;;;;;;;5058060;28;20450;-82
2023/10/25 06:28:40;;;;;;;7.50;7.00;;;;;;;;;;5057920;28;20397;-82
2023/10/25 06:31:10;;;;;;;6.50;6.10;;;;;;;;;;5057465;28;20382;-82
2023/10/25 06:33:36;;;;;;;6.82;6.40;;;;;;;;;;5057575;28;20378;-83
2023/10/25 06:36:02;;;;;;;6.38;5.97;;;;;;;;;;5056941;28;20940;-83
2023/10/25 06:38:28;;;;;;;7.10;6.60;;;;;;;;;;5058482;28;20378;-83
2023/10/25 06:40:54;;;;;;;6.75;6.35;;;;;;;;;;5064884;28;20385;-83
2023/10/25 06:43:20;;;;;;;7.10;6.60;;;;;;;;;;5061936;28;20417;-83
2023/10/25 06:45:46;;;;;;;6.80;6.30;;;;;;;;;;5054736;28;20411;-83
2023/10/25 06:48:13;;;;;;;7.65;7.15;;;;;;;;;;5053786;28;20476;-83
2023/10/25 06:50:39;;;;;;;8.43;7.78;;;;;;;;;;5053328;28;20476;-83
2023/10/25 06:53:05;;;;;;;9.18;8.48;;;;;;;;;;5054515;28;20389;-83
2023/10/25 06:55:31;;;;;;;9.10;8.40;;;;;;;;;;5054693;28;20377;-83
2023/10/25 06:57:57;;;;;;;8.67;8.07;;;;;;;;;;5055710;28;20517;-83
2023/10/25 07:00:24;;;;;;;8.15;7.55;;;;;;;;;;5055410;28;20393;-83
2023/10/25 07:02:51;;;;;;;8.30;7.70;;;;;;;;;;5055162;28;20501;-83
2023/10/25 07:05:19;;;;;;;7.63;7.13;;;;;;;;;;5055071;28;20401;-83
2023/10/25 07:07:45;;;;;;;8.85;8.15;;;;;;;;;;5054062;28;20488;-83
2023/10/25 07:10:12;;;;;;;8.70;8.10;;;;;;;;;;5035929;28;20393;-83
2023/10/25 07:12:39;;;;;;;8.53;7.93;;;;;;;;;;5054104;28;20397;-83
2023/10/25 07:15:05;;;;;;;8.10;7.50;;;;;;;;;;5054384;28;20385;-83
2023/10/25 07:17:31;;;;;;;7.90;7.40;;;;;;;;;;5054349;28;20397;-83
2023/10/25 07:20:00;;;;;;;8.85;8.25;;;;;;;;;;5036340;28;20401;-83
2023/10/25 07:22:27;;;;;;;8.80;8.20;;;;;;;;;;5054439;28;20408;-83
2023/10/25 07:24:53;;;;;;;8.80;8.20;;;;;;;;;;5054765;28;20385;-83
2023/10/25 07:27:19;;;;;;;8.90;8.30;;;;;;;;;;5054829;28;20391;-83
2023/10/25 07:29:45;;;;;;;8.07;7.47;;;;;;;;;;5054754;28;20784;-83
2023/10/25 07:32:11;;;;;;;7.30;6.80;;;;;;;;;;5054781;28;20465;-83
2023/10/25 07:34:38;;;;;;;7.82;7.22;;;;;;;;;;5055644;28;20397;-83
2023/10/25 07:37:04;;;;;;;7.75;7.15;;;;;;;;;;5054924;28;20382;-83
2023/10/25 07:39:30;;;;;;;7.88;7.28;;;;;;;;;;5055175;28;20417;-83
2023/10/25 07:41:56;;;;;;;7.05;6.55;;;;;;;;;;5055417;28;20392;-83
2023/10/25 07:44:22;;;;;;;9.80;9.00;;;;;;;;;;5054376;28;20417;-83
2023/10/25 07:46:48;;;;;;;9.68;8.98;;;;;;;;;;5054982;28;20889;-83
2023/10/25 07:49:14;;;;;;;10.45;9.65;;;;;;;;;;5054933;28;20385;-83
2023/10/25 07:51:40;;;;;;;9.38;8.68;;;;;;;;;;5055699;28;20382;-83
2023/10/25 07:54:06;;;;;;;8.43;7.82;;;;;;;;;;5054981;28;20841;-83
2023/10/25 07:56:32;;;;;;;7.93;7.43;;;;;;;;;;5054832;28;20389;-83
2023/10/25 07:58:58;;;;;;;7.50;7.00;;;;;;;;;;5054698;28;20719;-82
2023/10/25 08:01:24;;;;;;;6.28;5.88;;;;;;;;;;5053621;28;20388;-83
2023/10/25 08:03:50;;;;;;;8.45;7.65;;;;;;;;;;5054770;28;20416;-82
2023/10/25 08:06:17;;;;;;;7.60;7.10;;;;;;;;;;5054270;28;20382;-83
2023/10/25 08:08:43;;;;;;;8.60;8.00;;;;;;;;;;5054813;28;20374;-83
2023/10/25 08:11:09;;;;;;;8.63;8.02;;;;;;;;;;5054397;28;20443;-82
2023/10/25 08:13:38;;;;;;;9.27;8.57;;;;;;;;;;5054221;28;20473;-82
2023/10/25 08:16:04;;;;;;;7.80;7.20;;;;;;;;;;5054721;28;20384;-83
2023/10/25 08:18:31;;;;;;;9.05;8.35;;;;;;;;;;5054957;28;20386;-83
2023/10/25 08:20:58;;;;;;;7.70;7.10;;;;;;;;;;5036616;28;20398;-83
2023/10/25 08:23:24;;;;;;;8.13;7.53;;;;;;;;;;5053862;28;20413;-83
2023/10/25 08:25:51;;;;;;;7.87;7.17;;;;;;;;;;5054623;28;20862;-82
2023/10/25 08:28:17;;;;;;;6.57;6.07;;;;;;;;;;5054349;28;20878;-82
2023/10/25 08:30:43;;;;;;;6.82;6.32;;;;;;;;;;5054377;28;20389;-83
2023/10/25 08:33:10;;;;;;;6.68;6.28;;;;;;;;;;5055161;28;20472;-82
2023/10/25 08:35:37;;;;;;;6.65;6.15;;;;;;;;;;5054566;28;20469;-82
2023/10/25 08:38:04;;;;;;;6.20;5.70;;;;;;;;;;5055162;28;20385;-82
2023/10/25 08:40:31;;;;;;;6.05;5.65;;;;;;;;;;5054820;28;20847;-82
2023/10/25 08:43:01;;;;;;;7.43;6.82;;;;;;;;;;5059106;28;20420;-82
2023/10/25 08:45:28;;;;;;;7.45;6.95;;;;;;;;;;5054347;28;20409;-83
2023/10/25 08:47:54;;;;;;;7.30;6.80;;;;;;;;;;5054352;28;20392;-83
2023/10/25 08:50:21;;;;;;;7.78;7.28;;;;;;;;;;5059418;28;20390;-83
2023/10/25 08:52:50;;;;;;;7.15;6.63;;;;;;;;;;5036055;28;20398;-83
2023/10/25 08:55:19;;;;;;;6.73;6.13;;;;;;;;;;5055341;28;20381;-83
2023/10/25 08:57:45;;;;;;;6.30;5.90;;;;;;;;;;5054957;28;20790;-83
2023/10/25 09:00:14;;;;;;;5.90;5.50;;;;;;;;;;5036359;28;20381;-83
2023/10/25 09:02:41;;;;;;;5.53;5.13;;;;;;;;;;5054868;28;20943;-83
2023/10/25 09:05:07;;;;;;;5.50;5.00;;;;;;;;;;5054265;28;20846;-83
2023/10/25 09:07:37;;;;;;;5.40;5.00;;;;;;;;;;5054829;28;20823;-83
2023/10/25 09:10:04;;;;;;;6.00;5.50;;;;;;;;;;5053806;28;20389;-83
2023/10/25 09:12:31;;;;;;;5.20;4.87;;;;;;;;;;5053845;28;20397;-82
2023/10/25 09:14:57;;;;;;;5.20;4.90;;;;;;;;;;5060440;28;20382;-82
2023/10/25 09:17:23;;;;;;;5.60;5.10;;;;;;;;;;5061032;28;20420;-82
2023/10/25 09:19:50;;;;;;;6.78;6.38;;;;;;;;;;5065157;28;20432;-82
2023/10/25 09:22:25;;;;;;;6.57;6.18;;;;;;;;;;5060552;28;20389;-82
2023/10/25 09:24:51;;;;;;;9.00;8.30;;;;;;;;;;5057364;28;21324;-83
2023/10/25 09:27:21;;;;;;;9.20;8.40;;;;;;;;;;5060081;28;20429;-82
2023/10/25 09:29:47;;;;;;;7.63;7.13;;;;;;;;;;5063666;28;22474;-83
2023/10/25 09:32:13;;;;;;;8.67;8.07;;;;;;;;;;5061139;28;20409;-82
2023/10/25 09:34:39;;;;;;;7.47;6.97;;;;;;;;;;5062175;28;20377;-82
2023/10/25 09:37:09;;;;;;;8.10;7.60;;;;;;;;;;5071864;28;20388;-82
2023/10/25 09:39:38;;;;;;;9.70;8.90;;;;;;;;;;5060912;28;20384;-82
2023/10/25 09:42:12;;;;;;;9.60;8.80;;;;;;;;;;5061175;28;20450;-82
2023/10/25 09:44:45;;;;;;;7.45;6.85;;;;;;;;;;5043732;28;20500;-82
2023/10/25 09:47:11;;;;;;;5.68;5.28;;;;;;;;;;5060747;28;20381;-82
2023/10/25 09:49:42;;;;;;;4.78;4.47;;;;;;;;;;5043247;28;20389;-82
2023/10/25 09:52:12;;;;;;;5.00;4.60;;;;;;;;;;5060983;28;21154;-82
2023/10/25 09:54:43;;;;;;;3.88;3.60;;;;;;;;;;5060343;28;20378;-82
2023/10/25 09:57:10;;;;;;;5.30;4.90;;;;;;;;;;5060998;28;20461;-82
2023/10/25 09:59:37;;;;;;;5.80;5.40;;;;;;;;;;5062077;28;20469;-82
2023/10/25 10:02:06;;;;;;;5.78;5.38;;;;;;;;;;5067448;28;20399;-82
2023/10/25 10:04:35;;;;;;;5.45;5.00;;;;;;;;;;5065856;28;20504;-82
2023/10/25 10:07:01;;;;;;;5.30;4.50;;;;;;;;;;5061897;28;20381;-82
2023/10/25 10:09:46;;;;;;;5.20;4.90;;;;;;;;;;5062076;28;20447;-81
2023/10/25 10:12:12;;;;;;;4.72;4.40;;;;;;;;;;5043932;28;20370;-82
2023/10/25 10:14:38;;;;;;;5.18;4.78;;;;;;;;;;5061887;28;20397;-82
2023/10/25 10:17:05;;;;;;;4.90;4.57;;;;;;;;;;5061548;28;20400;-82
2023/10/25 10:19:31;;;;;;;5.65;5.25;;;;;;;;;;5062045;28;20388;-82
2023/10/25 10:22:04;;;;;;;4.90;4.60;;;;;;;;;;5061384;28;20388;-82
2023/10/25 10:24:46;;;;;;;5.90;5.40;;;;;;;;;;5061288;28;20862;-82
2023/10/25 10:27:39;;;;;;;5.35;4.95;;;;;;;;;;5048069;28;20381;-81
2023/10/25 10:30:05;;;;;;;4.90;4.60;;;;;;;;;;5011203;28;20417;-81
2023/10/25 10:32:34;;;;;;;5.07;4.70;;;;;;;;;;5056715;28;20381;-81
2023/10/25 10:35:02;;;;;;;4.63;4.32;;;;;;;;;;5039896;28;20385;-81
2023/10/25 10:37:32;;;;;;;5.32;4.82;;;;;;;;;;5057094;28;20378;-82
2023/10/25 10:39:57;;;;;;;5.13;4.83;;;;;;;;;;5044425;28;20943;-82
2023/10/25 10:42:38;;;;;;;5.20;4.80;;;;;;;;;;5055355;28;20429;-82
2023/10/25 10:45:05;;;;;;;5.30;4.90;;;;;;;;;;5042257;28;20398;-82
2023/10/25 10:47:38;;;;;;;4.90;4.50;;;;;;;;;;5091476;22;20440;-81
2023/10/25 10:50:15;;;;;;;5.15;4.68;;;;;;;;;;5058408;28;20387;-82
2023/10/25 10:52:42;;;;;;;4.75;4.40;;;;;;;;;;5048003;28;20383;-81
2023/10/25 10:55:09;;;;;;;4.20;3.90;;;;;;;;;;5048166;28;20442;-81
2023/10/25 10:57:38;;;;;;;4.35;4.05;;;;;;;;;;5023492;28;20770;-81
2023/10/25 11:00:07;;;;;;;4.18;3.88;;;;;;;;;;5031205;28;20398;-82
2023/10/25 11:02:34;;;;;;;4.15;3.83;;;;;;;;;;5050953;28;20529;-81
2023/10/25 11:05:00;;;;;;;4.00;3.70;;;;;;;;;;5037119;28;20470;-81
2023/10/25 11:07:26;;;;;;;4.70;4.30;;;;;;;;;;5032330;28;20398;-83
2023/10/25 11:09:52;;;;;;;3.95;3.65;;;;;;;;;;5048769;28;20911;-82
2023/10/25 11:12:19;;;;;;;4.30;4.00;;;;;;;;;;5031874;28;20407;-83
2023/10/25 11:14:47;;;;;;;3.53;2.90;;;;;;;;;;5048899;28;20402;-82
2023/10/25 11:17:13;;;;;;;3.97;2.72;;;;;;;;;;5050027;28;20437;-82
2023/10/25 11:19:40;;;;;;;3.30;3.00;;;;;;;;;;5046387;28;20386;-82
2023/10/25 11:22:06;;;;;;;2.95;2.67;;;;;;;;;;5046983;28;20466;-82
2023/10/25 11:24:37;;;;;;;2.90;2.70;;;;;;;;;;5046568;28;20524;-82
2023/10/25 11:27:04;;;;;;;2.92;2.72;;;;;;;;;;5048457;28;20375;-83
2023/10/25 11:29:34;;;;;;;3.13;2.92;;;;;;;;;;5060699;28;20416;-82
2023/10/25 11:32:06;;;;;;;2.80;2.60;;;;;;;;;;5048021;28;20435;-82
2023/10/25 11:34:32;;;;;;;2.92;2.60;;;;;;;;;;5048130;28;20394;-83
2023/10/25 11:36:59;;;;;;;5.25;3.10;;;;;;;;;;5045329;28;20395;-82
2023/10/25 11:39:25;;;;;;;3.13;2.90;;;;;;;;;;5041738;28;20383;-82
2023/10/25 11:41:51;;;;;;;2.60;2.40;;;;;;;;;;5049476;28;20462;-82
2023/10/25 11:44:21;;;;;;;3.03;2.83;;;;;;;;;;5053635;28;20423;-83
2023/10/25 11:46:51;;;;;;;2.25;1.83;;;;;;;;;;5045392;28;20395;-83
2023/10/25 11:49:20;;;;;;;2.38;2.17;;;;;;;;;;5047769;28;20391;-82
2023/10/25 11:51:47;;;;;;;4.93;2.15;;;;;;;;;;5048962;28;20413;-83
2023/10/25 11:54:13;;;;;;;2.50;2.05;;;;;;;;;;5052061;28;20410;-83
2023/10/25 11:56:39;;;;;;;1.88;1.77;;;;;;;;;;5043056;28;20391;-82
2023/10/25 11:59:05;;;;;;;1.95;1.73;;;;;;;;;;5028707;28;20375;-82
2023/10/25 12:01:32;;;;;;;2.10;1.90;;;;;;;;;;5046367;28;20383;-81
2023/10/25 12:03:58;;;;;;;1.83;1.73;;;;;;;;;;5030086;28;20430;-82
2023/10/25 12:06:24;;;;;;;1.77;1.67;;;;;;;;;;5046585;28;20457;-82
2023/10/25 12:08:50;;;;;;;2.45;1.90;;;;;;;;;;5044833;28;20415;-82
2023/10/25 12:11:16;;;;;;;2.35;2.15;;;;;;;;;;5045234;28;20459;-82
2023/10/25 12:13:42;;;;;;;4.28;1.90;;;;;;;;;;5046161;28;20391;-82
2023/10/25 12:16:09;;;;;;;2.95;1.75;;;;;;;;;;5047312;28;20518;-82
2023/10/25 12:18:36;;;;;;;2.17;1.80;;;;;;;;;;5047003;28;20421;-82
2023/10/25 12:21:05;;;;;;;1.95;1.85;;;;;;;;;;5045125;28;20394;-82
2023/10/25 12:23:31;;;;;;;4.13;1.70;;;;;;;;;;5044777;28;20471;-82
2023/10/25 12:25:58;;;;;;;2.10;1.90;;;;;;;;;;5043946;28;20534;-79
2023/10/25 12:28:24;;;;;;;2.88;2.20;;;;;;;;;;5042544;28;20410;-82
2023/10/25 12:30:50;;;;;;;2.47;2.27;;;;;;;;;;5045244;28;20540;-83
2023/10/25 12:33:16;;;;;;;2.40;2.17;;;;;;;;;;5043635;28;20387;-82
2023/10/25 12:35:42;;;;;;;2.28;2.08;;;;;;;;;;5042575;28;20398;-82
2023/10/25 12:38:09;;;;;;;1.98;1.80;;;;;;;;;;5025954;28;20395;-82
2023/10/25 12:40:35;;;;;;;2.55;2.05;;;;;;;;;;5045194;28;20529;-82
2023/10/25 12:43:01;;;;;;;2.50;2.05;;;;;;;;;;5044324;28;20815;-83
2023/10/25 12:45:28;;;;;;;4.43;2.88;;;;;;;;;;5044608;28;20461;-83
2023/10/25 12:47:54;;;;;;;3.30;2.65;;;;;;;;;;5043346;28;20924;-83
2023/10/25 12:50:20;;;;;;;3.40;2.40;;;;;;;;;;5044302;28;20395;-82
2023/10/25 12:52:46;;;;;;;2.53;2.33;;;;;;;;;;5043549;28;20394;-82
2023/10/25 12:55:12;;;;;;;3.30;3.03;;;;;;;;;;5045228;28;20387;-83
2023/10/25 12:57:38;;;;;;;4.13;3.00;;;;;;;;;;5048411;28;20388;-82
2023/10/25 13:00:10;;;;;;;3.40;3.10;;;;;;;;;;5061285;28;20392;-82
2023/10/25 13:02:36;;;;;;;4.57;4.18;;;;;;;;;;5043953;28;20422;-82
2023/10/25 13:05:03;;;;;;;4.22;3.75;;;;;;;;;;5046976;28;20879;-82
2023/10/25 13:07:30;;;;;;;3.33;2.92;;;;;;;;;;5046025;28;20382;-83
2023/10/25 13:09:56;;;;;;;3.53;3.13;;;;;;;;;;5042646;28;20383;-83
2023/10/25 13:12:22;;;;;;;4.63;4.13;;;;;;;;;;5041788;28;20744;-82
2023/10/25 13:14:49;;;;;;;4.03;3.70;;;;;;;;;;5038230;28;20780;-82
2023/10/25 13:17:16;;;;;;;4.07;3.33;;;;;;;;;;5050615;28;20409;-83
2023/10/25 13:19:42;;;;;;;3.67;3.38;;;;;;;;;;5040286;28;20387;-83
2023/10/25 13:22:11;;;;;;;3.38;3.10;;;;;;;;;;5039941;28;20386;-82
2023/10/25 13:24:37;;;;;;;3.33;2.95;;;;;;;;;;5038233;28;21108;-82
2023/10/25 13:27:04;;;;;;;3.10;2.90;;;;;;;;;;5016740;28;20449;-83
2023/10/25 13:29:33;;;;;;;3.15;2.92;;;;;;;;;;5038804;28;20452;-81
2023/10/25 13:31:59;;;;;;;2.80;2.25;;;;;;;;;;5043324;28;20387;-82
2023/10/25 13:34:24;;;;;;;2.35;2.20;;;;;;;;;;5043550;28;20978;-82
2023/10/25 13:36:50;;;;;;;2.85;2.50;;;;;;;;;;5025241;28;20402;-82
2023/10/25 13:39:16;;;;;;;3.83;2.60;;;;;;;;;;5043897;28;20395;-82
2023/10/25 13:41:42;;;;;;;3.72;3.10;;;;;;;;;;5036965;28;20402;-81
2023/10/25 13:44:08;;;;;;;3.13;2.92;;;;;;;;;;5028511;28;20419;-81
2023/10/25 13:46:35;;;;;;;4.53;2.80;;;;;;;;;;5041974;28;20406;-81
2023/10/25 13:49:01;;;;;;;3.17;2.90;;;;;;;;;;5042014;28;20888;-82
2023/10/25 13:51:27;;;;;;;2.92;2.72;;;;;;;;;;5021061;28;20438;-82
2023/10/25 13:53:53;;;;;;;3.20;2.50;;;;;;;;;;5032141;28;21809;-84
2023/10/25 13:56:19;;;;;;;2.60;2.40;;;;;;;;;;5041897;28;20379;-82
2023/10/25 13:58:45;;;;;;;2.30;2.10;;;;;;;;;;5056814;28;20918;-83
2023/10/25 14:01:11;;;;;;;1.95;1.85;;;;;;;;;;5043019;28;20428;-84
2023/10/25 14:03:37;;;;;;;2.35;1.92;;;;;;;;;;5041786;28;20449;-84
2023/10/25 14:06:04;;;;;;;1.88;1.77;;;;;;;;;;5049278;28;20455;-84
2023/10/25 14:08:30;;;;;;;1.75;1.55;;;;;;;;;;5045110;28;20387;-84
2023/10/25 14:10:56;;;;;;;1.90;1.80;;;;;;;;;;5044335;28;20393;-82
2023/10/25 14:13:22;;;;;;;2.83;2.10;;;;;;;;;;5041307;28;20407;-85
2023/10/25 14:15:49;;;;;;;1.95;1.83;;;;;;;;;;5043762;28;20387;-84
2023/10/25 14:18:15;;;;;;;1.60;1.50;;;;;;;;;;5044799;28;20410;-83
2023/10/25 14:20:41;;;;;;;1.83;1.40;;;;;;;;;;5045089;28;20425;-85
2023/10/25 14:23:07;;;;;;;1.60;1.50;;;;;;;;;;5041857;28;20410;-84
2023/10/25 14:25:40;;;;;;;1.98;1.42;;;;;;;;;;5041974;28;20394;-83
2023/10/25 14:28:09;;;;;;;1.42;1.33;;;;;;;;;;5045559;28;20387;-84
2023/10/25 14:30:45;;;;;;;1.42;1.10;;;;;;;;;;5044103;28;20387;-85
2023/10/25 14:33:11;;;;;;;1.40;1.30;;;;;;;;;;5035078;28;20387;-83
2023/10/25 14:35:39;;;;;;;1.20;1.10;;;;;;;;;;5057253;28;20428;-83
2023/10/25 14:38:05;;;;;;;3.23;2.10;;;;;;;;;;5051133;28;20953;-82
2023/10/25 14:40:32;;;;;;;4.13;2.50;;;;;;;;;;5045438;28;20394;-83